Time;durP1;ratioP1;P1;durP2;ratioP2;P2;SDS_P1;SDS_P2;PMS_P1;PMS_P2;Temp;Humidity;BMP_temperature;BMP_pressure;BME280_temperature;BME280_humidity;BME280_pressure;Samples;Min_cycle;Max_cycle;Signal;HPM_P1;HPM_P2
2022/03/26 00:00:42;;;;;;;46.95;22.10;;;;;;;5.17;49.65;94714.69;5033553;28;20379;-50
2022/03/26 00:03:09;;;;;;;42.95;19.15;;;;;;;5.41;48.62;94704.59;5034168;28;20041;-47
2022/03/26 00:05:36;;;;;;;46.95;20.38;;;;;;;5.34;49.40;94702.53;5033380;28;20046;-50
2022/03/26 00:08:03;;;;;;;45.17;19.30;;;;;;;5.16;50.09;94713.13;5033940;28;20048;-53
2022/03/26 00:10:30;;;;;;;43.97;19.42;;;;;;;5.04;50.21;94710.56;5033636;28;20049;-51
2022/03/26 00:12:57;;;;;;;42.38;18.98;;;;;;;5.76;48.12;94712.56;5033879;28;20095;-52
2022/03/26 00:15:25;;;;;;;43.10;18.02;;;;;;;5.65;48.07;94702.66;5033982;28;20042;-48
2022/03/26 00:17:52;;;;;;;40.55;17.58;;;;;;;5.83;48.05;94701.00;5032998;28;20060;-53
2022/03/26 00:20:18;;;;;;;40.83;17.77;;;;;;;5.71;48.38;94703.91;5033908;28;20050;-51
2022/03/26 00:22:46;;;;;;;41.80;19.00;;;;;;;5.33;49.25;94713.78;5033303;28;20049;-48
2022/03/26 00:25:15;;;;;;;41.13;17.85;;;;;;;5.64;48.57;94707.31;5033816;28;20041;-56
2022/03/26 00:27:41;;;;;;;37.30;16.45;;;;;;;6.12;47.28;94698.75;5033233;28;20072;-59
2022/03/26 00:30:10;;;;;;;41.28;18.77;;;;;;;5.35;49.37;94703.31;5032231;28;20049;-53
2022/03/26 00:32:37;;;;;;;44.77;18.80;;;;;;;5.42;48.91;94700.75;5033078;28;20046;-51
2022/03/26 00:35:06;;;;;;;48.65;20.33;;;;;;;5.13;49.79;94711.13;5033370;28;20084;-53
2022/03/26 00:37:33;;;;;;;42.20;18.45;;;;;;;5.39;48.23;94701.44;5033188;28;20045;-50
2022/03/26 00:40:00;;;;;;;42.85;19.15;;;;;;;4.71;51.51;94706.44;5033533;28;20051;-55
2022/03/26 00:42:27;;;;;;;46.75;20.55;;;;;;;4.78;51.45;94706.56;5033454;28;20052;-49
2022/03/26 00:44:53;;;;;;;44.93;18.53;;;;;;;4.85;50.99;94700.50;5031834;28;20479;-51
2022/03/26 00:47:20;;;;;;;44.47;19.25;;;;;;;4.89;50.56;94700.56;5033093;28;20079;-54
2022/03/26 00:49:47;;;;;;;43.65;19.17;;;;;;;4.88;50.79;94693.56;5031586;28;20047;-52
2022/03/26 00:52:14;;;;;;;41.28;18.08;;;;;;;4.68;50.71;94692.78;5033239;28;20044;-56
2022/03/26 00:54:41;;;;;;;45.03;18.60;;;;;;;4.80;51.37;94696.13;5032400;28;20055;-51
2022/03/26 00:57:07;;;;;;;43.53;18.63;;;;;;;4.84;50.28;94687.25;5033141;28;20063;-52
2022/03/26 00:59:34;;;;;;;40.25;17.52;;;;;;;5.23;49.27;94700.78;5031146;28;20056;-55
2022/03/26 01:02:01;;;;;;;42.05;18.10;;;;;;;5.18;49.95;94680.09;5025493;28;20045;-53
2022/03/26 01:04:28;;;;;;;40.78;17.95;;;;;;;5.06;49.97;94685.72;5028265;28;20548;-52
2022/03/26 01:06:54;;;;;;;42.38;18.83;;;;;;;5.25;49.47;94698.47;5016260;28;20075;-56
2022/03/26 01:09:21;;;;;;;41.63;18.33;;;;;;;4.91;50.74;94693.63;5033104;28;20056;-49
2022/03/26 01:11:48;;;;;;;43.65;18.77;;;;;;;5.08;50.14;94697.81;5032390;28;20064;-51
2022/03/26 01:14:15;;;;;;;41.72;17.92;;;;;;;5.24;49.70;94688.75;5031166;28;20041;-57
2022/03/26 01:16:42;;;;;;;55.50;20.70;;;;;;;5.25;49.47;94685.69;5031170;28;20045;-53
2022/03/26 01:19:10;;;;;;;45.45;19.48;;;;;;;5.20;49.20;94684.03;5031011;28;20046;-56
2022/03/26 01:21:37;;;;;;;48.07;20.50;;;;;;;4.91;50.11;94696.34;5032342;28;20371;-49
2022/03/26 01:24:04;;;;;;;44.58;19.15;;;;;;;4.58;51.86;94688.69;5031465;28;20041;-50
2022/03/26 01:26:30;;;;;;;47.92;20.17;;;;;;;4.66;51.48;94692.34;5032174;28;20037;-52
2022/03/26 01:28:57;;;;;;;47.95;19.27;;;;;;;4.92;50.92;94699.84;5031133;28;20047;-54
2022/03/26 01:31:24;;;;;;;43.30;19.13;;;;;;;4.84;51.04;94689.97;5032351;28;20067;-52
2022/03/26 01:33:51;;;;;;;42.27;17.63;;;;;;;4.83;51.11;94696.56;5030682;28;20041;-51
2022/03/26 01:36:18;;;;;;;43.10;18.83;;;;;;;4.61;51.64;94688.00;5030736;28;20048;-55
2022/03/26 01:38:45;;;;;;;47.28;19.77;;;;;;;4.62;51.34;94696.94;5031638;28;20528;-52
2022/03/26 01:41:12;;;;;;;40.53;17.52;;;;;;;5.04;50.30;94683.34;5032140;28;20038;-49
2022/03/26 01:43:41;;;;;;;41.80;17.73;;;;;;;5.41;49.32;94682.81;5031739;28;20059;-49
2022/03/26 01:46:10;;;;;;;43.30;19.60;;;;;;;5.05;49.58;94678.69;5032388;28;20049;-56
2022/03/26 01:48:38;;;;;;;50.65;19.67;;;;;;;4.62;51.44;94686.84;5031754;28;20397;-51
2022/03/26 01:51:14;;;;;;;45.00;18.15;;;;;;;4.36;51.96;94680.09;5030611;28;20063;-55
2022/03/26 01:53:50;;;;;;;47.58;18.98;;;;;;;4.22;52.76;94674.38;5024984;28;20490;-52
2022/03/26 01:56:18;;;;;;;45.38;18.90;;;;;;;4.10;53.69;94680.72;5015760;28;20046;-50
2022/03/26 01:58:45;;;;;;;44.13;18.60;;;;;;;3.91;54.18;94684.19;5011673;28;20064;-51
2022/03/26 02:01:13;;;;;;;57.03;24.15;;;;;;;3.86;54.55;94680.97;5012006;28;20044;-53
2022/03/26 02:03:40;;;;;;;44.30;18.05;;;;;;;3.85;53.91;94685.63;5026746;28;20045;-48
2022/03/26 02:06:07;;;;;;;41.40;17.83;;;;;;;3.71;54.56;94690.72;5012051;28;20050;-50
2022/03/26 02:08:34;;;;;;;42.42;19.23;;;;;;;3.46;55.23;94684.69;5028594;28;20053;-51
2022/03/26 02:11:02;;;;;;;42.40;17.87;;;;;;;3.53;55.70;94682.94;5030296;28;20037;-55
2022/03/26 02:13:55;;;;;;;46.25;19.13;;;;;;;3.57;55.39;94678.38;5030307;28;20049;-57
2022/03/26 02:16:23;;;;;;;45.83;18.45;;;;;;;3.65;55.81;94687.47;5030369;28;20401;-49
2022/03/26 02:18:51;;;;;;;43.83;17.52;;;;;;;3.64;55.53;94682.41;5029432;28;22589;-57
2022/03/26 02:21:20;;;;;;;42.83;18.33;;;;;;;3.45;56.09;94681.19;5031368;28;20055;-51
2022/03/26 02:23:48;;;;;;;45.50;18.50;;;;;;;3.44;56.29;94681.53;5029723;28;20056;-58
2022/03/26 02:26:16;;;;;;;41.75;18.35;;;;;;;3.28;57.03;94673.41;5031440;28;20052;-50
2022/03/26 02:28:44;;;;;;;45.17;19.95;;;;;;;3.30;56.15;94679.25;5030805;28;20041;-51
2022/03/26 02:31:12;;;;;;;42.13;18.33;;;;;;;3.32;56.87;94675.09;5031349;28;20033;-49
2022/03/26 02:33:39;;;;;;;47.15;19.23;;;;;;;3.10;57.64;94681.09;5030758;28;20090;-53
2022/03/26 02:36:07;;;;;;;44.70;18.57;;;;;;;3.24;57.39;94688.81;5031204;28;20068;-49
2022/03/26 02:38:34;;;;;;;45.42;18.77;;;;;;;3.16;57.54;94690.56;5030725;28;20045;-50
2022/03/26 02:41:01;;;;;;;43.22;18.40;;;;;;;3.12;57.56;94685.06;5031097;28;20041;-49
2022/03/26 02:43:28;;;;;;;43.25;18.48;;;;;;;3.17;57.53;94684.00;5031325;28;20437;-50
2022/03/26 02:45:55;;;;;;;43.05;18.88;;;;;;;3.10;57.52;94678.38;5030276;28;20455;-56
2022/03/26 02:48:22;;;;;;;41.57;18.63;;;;;;;3.09;57.82;94672.16;5031103;28;20102;-57
2022/03/26 02:50:50;;;;;;;47.97;19.48;;;;;;;2.91;58.37;94687.97;5030512;28;20358;-51
2022/03/26 02:53:21;;;;;;;44.00;18.83;;;;;;;2.93;58.18;94677.56;5031000;28;20042;-54
2022/03/26 02:55:48;;;;;;;45.40;18.80;;;;;;;2.90;58.55;94672.09;5030431;28;20122;-56
2022/03/26 02:58:14;;;;;;;43.88;18.95;;;;;;;2.91;58.68;94673.66;5031082;28;20060;-49
2022/03/26 03:00:41;;;;;;;44.10;18.87;;;;;;;2.90;58.67;94675.56;5030465;28;20057;-50
2022/03/26 03:03:08;;;;;;;46.13;19.35;;;;;;;2.88;58.51;94671.63;5030653;28;20049;-55
2022/03/26 03:05:35;;;;;;;43.95;19.08;;;;;;;2.69;59.10;94689.34;5030170;28;20076;-49
2022/03/26 03:08:02;;;;;;;47.65;19.90;;;;;;;2.60;59.57;94683.28;5030523;28;20049;-52
2022/03/26 03:10:30;;;;;;;46.67;19.35;;;;;;;2.59;59.52;94681.69;5030653;28;20064;-55
2022/03/26 03:12:58;;;;;;;52.93;19.83;;;;;;;2.65;58.97;94683.03;5029769;28;20205;-48
2022/03/26 03:15:25;;;;;;;56.53;20.88;;;;;;;2.65;59.33;94674.91;5030552;28;20045;-48
2022/03/26 03:17:52;;;;;;;57.67;21.38;;;;;;;2.45;60.00;94681.31;5029911;28;20037;-48
2022/03/26 03:20:19;;;;;;;51.22;21.20;;;;;;;2.36;60.06;94676.06;5012909;28;20038;-50
2022/03/26 03:22:46;;;;;;;53.25;21.17;;;;;;;2.27;60.32;94678.88;5029353;28;20061;-51
2022/03/26 03:25:13;;;;;;;47.87;19.73;;;;;;;2.32;60.91;94681.38;5030586;28;20049;-57
2022/03/26 03:27:40;;;;;;;54.03;20.40;;;;;;;2.30;60.79;94682.84;5029868;28;20045;-49
2022/03/26 03:30:08;;;;;;;46.50;19.13;;;;;;;2.35;60.39;94688.00;5030226;28;20041;-51
2022/03/26 03:32:35;;;;;;;44.70;19.63;;;;;;;2.36;60.14;94692.31;5028789;28;20041;-48
2022/03/26 03:35:02;;;;;;;47.75;19.55;;;;;;;2.35;60.43;94688.78;5030180;28;20409;-51
2022/03/26 03:37:28;;;;;;;47.37;19.87;;;;;;;2.34;60.55;94691.88;5030196;28;20049;-50
2022/03/26 03:39:55;;;;;;;51.75;22.08;;;;;;;2.30;60.51;94689.03;5019481;28;20049;-51
2022/03/26 03:42:22;;;;;;;51.65;21.50;;;;;;;2.13;60.91;94686.59;5013305;28;20061;-57
2022/03/26 03:44:48;;;;;;;50.38;20.92;;;;;;;2.06;61.51;94681.00;5010129;28;20046;-49
2022/03/26 03:47:15;;;;;;;50.10;19.90;;;;;;;2.03;61.48;94692.50;5010555;28;20107;-52
2022/03/26 03:49:42;;;;;;;45.83;19.80;;;;;;;2.04;61.37;94691.38;5009894;28;20053;-47
2022/03/26 03:52:09;;;;;;;46.67;19.55;;;;;;;2.07;61.36;94683.34;5009351;28;20050;-55
2022/03/26 03:54:35;;;;;;;47.67;19.67;;;;;;;2.05;61.57;94695.66;5025012;28;20515;-50
2022/03/26 03:57:02;;;;;;;46.15;19.55;;;;;;;2.03;62.14;94687.09;5010483;28;20041;-50
2022/03/26 03:59:29;;;;;;;48.45;20.23;;;;;;;1.88;62.17;94691.28;5010299;28;20052;-47
2022/03/26 04:01:56;;;;;;;55.50;20.10;;;;;;;1.91;62.30;94698.72;5008205;28;20750;-51
2022/03/26 04:04:23;;;;;;;51.08;19.77;;;;;;;1.88;62.44;94700.19;5009065;28;20151;-53
2022/03/26 04:06:50;;;;;;;51.33;21.10;;;;;;;1.72;62.60;94693.91;5012748;28;23464;-51
2022/03/26 04:09:16;;;;;;;49.05;19.75;;;;;;;1.77;62.49;94696.38;5030144;28;20042;-52
2022/03/26 04:11:43;;;;;;;47.55;20.02;;;;;;;1.34;63.26;94695.81;5029687;28;20063;-51
2022/03/26 04:14:11;;;;;;;46.73;20.50;;;;;;;1.27;63.93;94700.19;5030084;28;20486;-52
2022/03/26 04:16:37;;;;;;;48.55;20.38;;;;;;;1.35;63.94;94693.94;5011880;28;20045;-53
2022/03/26 04:19:04;;;;;;;47.40;19.38;;;;;;;1.38;63.33;94698.63;5029729;28;20041;-52
2022/03/26 04:21:31;;;;;;;49.85;20.13;;;;;;;1.35;64.02;94710.16;5029450;28;20102;-54
2022/03/26 04:23:58;;;;;;;48.95;20.48;;;;;;;1.30;63.67;94699.53;5029814;28;20064;-51
2022/03/26 04:26:24;;;;;;;51.27;21.50;;;;;;;1.20;64.10;94692.66;5028742;28;20041;-52
2022/03/26 04:28:51;;;;;;;57.15;23.77;;;;;;;1.30;64.35;94699.53;5029242;28;20490;-52
2022/03/26 04:31:18;;;;;;;50.35;19.75;;;;;;;0.84;65.06;94696.09;5029854;28;20049;-50
2022/03/26 04:33:44;;;;;;;48.97;20.85;;;;;;;1.01;64.29;94695.91;5030314;28;20091;-49
2022/03/26 04:36:11;;;;;;;49.13;20.85;;;;;;;0.81;64.84;94696.78;5033470;28;20042;-57
2022/03/26 04:38:38;;;;;;;52.63;21.70;;;;;;;0.86;65.12;94689.22;5033187;28;20044;-51
2022/03/26 04:41:05;;;;;;;51.10;21.08;;;;;;;0.90;65.13;94700.94;5033544;28;20044;-50
2022/03/26 04:43:32;;;;;;;49.80;21.38;;;;;;;0.83;64.52;94700.72;5032948;28;20049;-58
2022/03/26 04:45:58;;;;;;;47.92;19.83;;;;;;;0.85;64.61;94700.38;5033272;28;20045;-55
2022/03/26 04:48:25;;;;;;;49.25;20.77;;;;;;;0.78;64.81;94704.38;5033297;28;20049;-48
2022/03/26 04:50:52;;;;;;;52.17;21.40;;;;;;;0.86;65.25;94693.84;5032747;28;20055;-55
2022/03/26 04:53:19;;;;;;;52.65;21.25;;;;;;;0.85;65.40;94697.69;5032028;28;20052;-47
2022/03/26 04:55:45;;;;;;;46.78;19.40;;;;;;;0.92;65.06;94714.13;5032650;28;20045;-50
2022/03/26 04:58:12;;;;;;;52.28;22.00;;;;;;;0.71;66.49;94712.25;5033104;28;20046;-57
2022/03/26 05:00:40;;;;;;;50.88;20.83;;;;;;;0.83;65.50;94706.13;5032540;28;20486;-53
2022/03/26 05:03:08;;;;;;;50.27;20.77;;;;;;;0.77;65.66;94712.84;5033166;28;20052;-55
2022/03/26 05:05:35;;;;;;;47.97;20.55;;;;;;;0.83;65.09;94708.03;5032300;28;20055;-55
2022/03/26 05:08:01;;;;;;;52.72;20.75;;;;;;;0.90;65.38;94703.63;5023792;28;20045;-50
2022/03/26 05:10:29;;;;;;;50.35;20.63;;;;;;;0.72;65.61;94713.03;5020920;28;20056;-48
2022/03/26 05:12:58;;;;;;;50.90;20.75;;;;;;;0.56;66.37;94713.69;5030502;28;20855;-52
2022/03/26 05:15:29;;;;;;;54.13;22.63;;;;;;;1.00;65.31;94703.22;5032691;28;20053;-53
2022/03/26 05:17:57;;;;;;;55.13;20.35;;;;;;;1.10;64.97;94714.72;5031487;28;20403;-53
2022/03/26 05:20:24;;;;;;;48.22;20.30;;;;;;;0.77;65.57;94713.63;5031671;28;20041;-49
2022/03/26 05:22:52;;;;;;;47.78;20.17;;;;;;;0.99;65.51;94714.38;5031002;28;20045;-50
2022/03/26 05:25:19;;;;;;;48.10;20.27;;;;;;;1.15;64.89;94709.91;5032602;28;20063;-50
2022/03/26 05:27:50;;;;;;;50.73;19.90;;;;;;;1.51;63.95;94712.94;5032040;28;20055;-50
2022/03/26 05:30:18;;;;;;;52.22;20.52;;;;;;;1.39;63.71;94701.00;5032542;28;20042;-48
2022/03/26 05:32:45;;;;;;;49.38;20.23;;;;;;;1.24;63.46;94703.59;5030709;28;20045;-51
2022/03/26 05:35:16;;;;;;;50.80;20.08;;;;;;;1.18;64.11;94719.25;5032387;28;20491;-52
2022/03/26 05:37:47;;;;;;;54.33;21.88;;;;;;;0.59;65.37;94725.72;5031892;28;20057;-51
2022/03/26 05:40:17;;;;;;;65.27;24.07;;;;;;;0.98;65.23;94718.97;5031115;28;20526;-53
2022/03/26 05:42:46;;;;;;;63.15;23.80;;;;;;;1.19;64.17;94721.63;5031949;28;20047;-54
2022/03/26 05:45:13;;;;;;;71.00;26.58;;;;;;;1.26;64.43;94726.47;5031475;28;20041;-52
2022/03/26 05:47:41;;;;;;;61.45;25.23;;;;;;;1.49;63.83;94726.03;5030357;28;20049;-49
2022/03/26 05:50:10;;;;;;;64.03;26.15;;;;;;;1.64;63.20;94722.66;5030809;28;20494;-50
2022/03/26 05:52:36;;;;;;;64.30;24.63;;;;;;;1.79;63.30;94730.09;5031621;28;20048;-48
2022/03/26 05:55:04;;;;;;;65.65;27.02;;;;;;;1.24;64.00;94726.00;5031847;28;20046;-55
2022/03/26 05:57:31;;;;;;;66.85;26.45;;;;;;;1.57;63.26;94739.47;5029800;28;20060;-47
2022/03/26 05:59:58;;;;;;;67.15;25.85;;;;;;;1.77;62.71;94736.97;5031683;28;20041;-47
2022/03/26 06:02:25;;;;;;;63.95;25.92;;;;;;;1.90;62.54;94733.13;5031848;28;20038;-54
2022/03/26 06:04:51;;;;;;;66.50;25.17;;;;;;;2.07;62.39;94734.78;5031527;28;20516;-50
2022/03/26 06:07:18;;;;;;;59.42;23.65;;;;;;;2.25;62.07;94740.72;5031653;28;20055;-57
2022/03/26 06:09:45;;;;;;;68.57;27.65;;;;;;;2.43;61.83;94730.41;5031124;28;20041;-53
2022/03/26 06:12:12;;;;;;;57.50;23.30;;;;;;;2.54;61.85;94728.81;5031694;28;20037;-50
2022/03/26 06:14:38;;;;;;;58.78;24.02;;;;;;;2.50;61.76;94732.56;5031019;28;20053;-50
2022/03/26 06:17:05;;;;;;;57.47;23.67;;;;;;;2.66;60.57;94738.81;5031664;28;20063;-54
2022/03/26 06:19:32;;;;;;;54.58;22.58;;;;;;;2.83;60.87;94740.44;5030839;28;20051;-51
2022/03/26 06:21:59;;;;;;;55.13;24.00;;;;;;;2.58;60.63;94743.25;5030186;28;20043;-47
2022/03/26 06:24:25;;;;;;;51.35;22.88;;;;;;;2.91;60.17;94742.19;5031315;28;20051;-51
2022/03/26 06:26:52;;;;;;;52.53;21.67;;;;;;;3.12;59.50;94744.72;5030768;28;20061;-51
2022/03/26 06:29:19;;;;;;;52.17;22.13;;;;;;;3.34;59.67;94740.63;5029989;28;20091;-47
2022/03/26 06:31:46;;;;;;;48.85;20.65;;;;;;;3.62;58.87;94741.69;5030215;28;20055;-52
2022/03/26 06:34:13;;;;;;;51.30;22.30;;;;;;;3.78;58.58;94737.03;5031300;28;20055;-56
2022/03/26 06:36:40;;;;;;;68.18;24.20;;;;;;;3.83;58.76;94746.84;5030887;28;20056;-52
2022/03/26 06:39:07;;;;;;;55.92;23.15;;;;;;;4.04;58.59;94743.81;5029527;28;20043;-47
2022/03/26 06:41:39;;;;;;;50.07;21.37;;;;;;;4.11;57.79;94741.28;5030731;28;20414;-50
2022/03/26 06:44:09;;;;;;;49.13;20.60;;;;;;;4.16;57.91;94744.50;5028033;28;20395;-55
2022/03/26 06:46:37;;;;;;;47.97;21.42;;;;;;;4.43;57.25;94754.78;5029987;28;20050;-50
2022/03/26 06:49:07;;;;;;;44.55;20.35;;;;;;;4.68;56.59;94758.03;5031086;28;20042;-55
2022/03/26 06:51:35;;;;;;;46.55;20.90;;;;;;;4.83;56.11;94761.81;5030047;28;20067;-50
2022/03/26 06:54:02;;;;;;;48.70;21.50;;;;;;;5.04;55.29;94758.75;5030889;28;20046;-51
2022/03/26 06:56:29;;;;;;;50.20;23.65;;;;;;;5.28;54.73;94761.16;5030385;28;20107;-49
2022/03/26 06:58:56;;;;;;;49.13;22.23;;;;;;;5.29;54.60;94759.22;5028273;28;20052;-47
2022/03/26 07:01:22;;;;;;;49.80;22.88;;;;;;;5.36;55.19;94765.56;5030777;28;20045;-50
2022/03/26 07:03:49;;;;;;;54.72;25.40;;;;;;;4.72;56.03;94773.25;5030274;28;20052;-49
2022/03/26 07:06:18;;;;;;;53.90;24.50;;;;;;;3.82;58.84;94766.97;5030545;28;20049;-55
2022/03/26 07:08:46;;;;;;;52.33;24.98;;;;;;;4.18;59.01;94774.81;5028373;28;20126;-50
2022/03/26 07:11:13;;;;;;;54.45;23.90;;;;;;;4.25;57.82;94773.44;5030435;28;20063;-57
2022/03/26 07:13:40;;;;;;;50.80;22.08;;;;;;;4.90;56.50;94778.28;5030244;28;20064;-51
2022/03/26 07:16:07;;;;;;;47.55;21.35;;;;;;;6.06;53.28;94763.66;5030525;28;20045;-48
2022/03/26 07:18:35;;;;;;;53.50;22.20;;;;;;;8.63;47.35;94764.06;5029778;28;20048;-48
2022/03/26 07:21:02;;;;;;;52.58;23.25;;;;;;;9.93;44.41;94770.78;5030414;28;20038;-50
2022/03/26 07:23:29;;;;;;;49.83;24.67;;;;;;;10.14;43.45;94761.75;5030434;28;20045;-50
2022/03/26 07:25:56;;;;;;;52.03;25.20;;;;;;;11.49;41.36;94751.66;5029535;28;20413;-55
2022/03/26 07:28:23;;;;;;;47.03;27.05;;;;;;;11.22;41.45;94764.34;5010755;28;20038;-54
2022/03/26 07:30:50;;;;;;;43.67;25.07;;;;;;;15.76;33.32;94751.53;5009756;28;21004;-54
2022/03/26 07:33:17;;;;;;;45.90;24.98;;;;;;;16.54;30.88;94761.97;5010444;28;20057;-53
2022/03/26 07:35:44;;;;;;;44.15;26.80;;;;;;;14.58;33.66;94760.09;5010013;28;20048;-54
2022/03/26 07:38:12;;;;;;;43.97;27.08;;;;;;;14.81;32.25;94766.00;5010568;28;20052;-53
2022/03/26 07:40:39;;;;;;;42.50;26.48;;;;;;;16.97;29.70;94765.69;5009895;28;20046;-53
2022/03/26 07:43:07;;;;;;;44.60;26.30;;;;;;;18.61;28.14;94753.72;5010525;28;20101;-51
2022/03/26 07:45:34;;;;;;;42.00;26.35;;;;;;;18.42;27.39;94757.56;5010049;28;20057;-50
2022/03/26 07:48:02;;;;;;;40.75;25.77;;;;;;;20.15;25.24;94756.63;5010289;28;20042;-50
2022/03/26 07:50:29;;;;;;;42.67;26.73;;;;;;;19.46;25.66;94763.16;5010699;28;20049;-51
2022/03/26 07:52:56;;;;;;;42.83;27.65;;;;;;;17.53;28.85;94754.22;4989950;28;20899;-54
2022/03/26 07:55:22;;;;;;;41.50;25.63;;;;;;;20.43;24.55;94758.75;4990712;28;20483;-52
2022/03/26 07:57:49;;;;;;;40.33;26.58;;;;;;;17.47;28.54;94752.44;4989148;28;20404;-51
2022/03/26 08:00:17;;;;;;;38.40;25.90;;;;;;;20.01;25.27;94757.19;4990676;28;20103;-57
2022/03/26 08:02:44;;;;;;;40.65;25.52;;;;;;;19.91;25.21;94756.34;4989506;28;20050;-52
2022/03/26 08:05:10;;;;;;;38.03;26.38;;;;;;;19.66;25.54;94760.06;4990235;28;20042;-52
2022/03/26 08:07:37;;;;;;;41.40;26.37;;;;;;;16.90;29.65;94766.66;4998512;28;20042;-60
2022/03/26 08:10:05;;;;;;;43.95;28.40;;;;;;;15.11;33.31;94768.63;5013037;28;20037;-51
2022/03/26 08:12:32;;;;;;;43.15;28.08;;;;;;;16.55;30.30;94768.28;5013138;28;20052;-46
2022/03/26 08:14:59;;;;;;;42.50;28.10;;;;;;;17.48;28.86;94767.88;5013253;28;20054;-50
2022/03/26 08:17:28;;;;;;;43.55;27.55;;;;;;;20.12;25.19;94763.13;5013247;28;20076;-51
2022/03/26 08:19:55;;;;;;;39.13;25.83;;;;;;;23.51;22.03;94758.69;5012990;28;20049;-51
2022/03/26 08:22:22;;;;;;;39.08;26.73;;;;;;;22.98;21.84;94766.97;5012013;28;20050;-54
2022/03/26 08:24:49;;;;;;;39.20;26.38;;;;;;;22.04;23.13;94757.44;5011432;28;20054;-50
2022/03/26 08:27:16;;;;;;;38.22;26.58;;;;;;;24.80;20.71;94759.31;5012096;28;20041;-56
2022/03/26 08:29:42;;;;;;;38.72;27.27;;;;;;;20.70;24.54;94761.63;5012508;28;20042;-52
2022/03/26 08:32:09;;;;;;;40.60;28.13;;;;;;;17.72;28.90;94765.59;5013225;28;20054;-47
2022/03/26 08:34:36;;;;;;;41.78;26.73;;;;;;;22.64;22.44;94766.25;5012680;28;20046;-51
2022/03/26 08:37:03;;;;;;;41.20;28.55;;;;;;;17.77;28.16;94765.06;5012967;28;20052;-50
2022/03/26 08:39:30;;;;;;;41.75;26.90;;;;;;;23.01;22.14;94752.03;5013457;28;20050;-55
2022/03/26 08:41:57;;;;;;;41.72;26.40;;;;;;;22.45;22.20;94763.53;5012041;28;21675;-51
2022/03/26 08:44:23;;;;;;;36.17;25.27;;;;;;;25.28;19.96;94758.19;5012985;28;20063;-48
2022/03/26 08:46:50;;;;;;;39.45;26.98;;;;;;;20.04;25.87;94761.84;5012155;28;20071;-51
2022/03/26 08:49:17;;;;;;;38.45;26.52;;;;;;;24.01;20.62;94768.53;5011621;28;20056;-55
2022/03/26 08:51:44;;;;;;;39.13;25.60;;;;;;;26.92;18.32;94765.34;5012489;28;20057;-52
2022/03/26 08:54:10;;;;;;;37.45;25.20;;;;;;;29.96;15.90;94762.69;5013032;28;20052;-57
2022/03/26 08:56:37;;;;;;;36.37;25.60;;;;;;;28.16;16.58;94755.34;5012519;28;20103;-51
2022/03/26 08:59:04;;;;;;;32.53;23.48;;;;;;;28.08;14.52;94757.88;5012716;28;20048;-52
2022/03/26 09:01:31;;;;;;;31.77;23.40;;;;;;;25.16;17.92;94764.91;5012162;28;20073;-51
2022/03/26 09:03:58;;;;;;;33.55;23.75;;;;;;;27.85;15.71;94759.13;5012637;28;20037;-53
2022/03/26 09:06:25;;;;;;;31.60;22.83;;;;;;;28.21;14.83;94754.59;5012736;28;20064;-50
2022/03/26 09:08:52;;;;;;;31.93;21.87;;;;;;;26.74;15.72;94764.47;5012140;28;20060;-56
2022/03/26 09:11:19;;;;;;;34.38;22.55;;;;;;;28.35;14.63;94755.59;5012647;28;20068;-51
2022/03/26 09:13:46;;;;;;;32.88;22.55;;;;;;;28.67;14.07;94761.78;5012083;28;20087;-53
2022/03/26 09:16:12;;;;;;;33.58;21.90;;;;;;;31.00;12.38;94762.16;5011103;28;20045;-53
2022/03/26 09:18:40;;;;;;;32.97;21.83;;;;;;;31.71;11.71;94749.72;5011539;28;20499;-50
2022/03/26 09:21:07;;;;;;;34.77;22.33;;;;;;;26.59;15.43;94752.63;5011516;28;20037;-52
2022/03/26 09:23:34;;;;;;;29.20;21.60;;;;;;;29.97;12.96;94754.94;5010414;28;20050;-51
2022/03/26 09:26:04;;;;;;;31.77;23.40;;;;;;;25.83;15.73;94759.31;5011818;28;20042;-50
2022/03/26 09:28:31;;;;;;;35.88;22.40;;;;;;;25.56;16.03;94755.72;4994790;28;20046;-53
2022/03/26 09:30:57;;;;;;;32.15;22.17;;;;;;;27.87;14.75;94746.06;5012221;28;20048;-51
2022/03/26 09:33:24;;;;;;;32.37;21.73;;;;;;;29.33;13.09;94746.50;5012152;28;20056;-51
2022/03/26 09:35:51;;;;;;;30.60;22.25;;;;;;;27.01;14.74;94749.03;5011401;28;20057;-53
2022/03/26 09:38:19;;;;;;;30.77;22.20;;;;;;;26.14;14.99;94750.19;5011873;28;20045;-54
2022/03/26 09:40:45;;;;;;;34.58;21.85;;;;;;;27.67;14.27;94758.31;5011182;28;20050;-51
2022/03/26 09:43:14;;;;;;;30.27;22.35;;;;;;;26.40;14.67;94755.78;5012061;28;20376;-53
2022/03/26 09:45:41;;;;;;;34.67;22.90;;;;;;;26.46;15.07;94755.81;5011355;28;20056;-56
2022/03/26 09:48:08;;;;;;;32.72;22.60;;;;;;;24.05;16.61;94755.84;5011934;28;20054;-48
2022/03/26 09:50:38;;;;;;;33.58;22.02;;;;;;;26.08;15.61;94758.56;5010150;28;20042;-51
2022/03/26 09:53:05;;;;;;;30.55;22.13;;;;;;;27.07;14.90;94754.69;5011865;28;20362;-51
2022/03/26 09:55:32;;;;;;;30.20;21.73;;;;;;;25.56;15.07;94750.09;5011136;28;20048;-51
2022/03/26 09:57:59;;;;;;;35.20;22.33;;;;;;;23.56;17.33;94770.47;5009922;28;20083;-51
2022/03/26 10:00:25;;;;;;;33.03;22.48;;;;;;;23.72;16.76;94750.38;5004294;28;20050;-50
2022/03/26 10:02:52;;;;;;;34.55;22.35;;;;;;;26.71;14.51;94740.16;4999746;28;20054;-55
2022/03/26 10:05:19;;;;;;;33.97;22.55;;;;;;;28.53;13.46;94750.75;5001064;28;20580;-53
2022/03/26 10:07:50;;;;;;;31.33;21.60;;;;;;;30.89;11.77;94743.19;5011333;28;20466;-51
2022/03/26 10:10:24;;;;;;;31.23;21.57;;;;;;;29.92;12.31;94741.59;5010879;28;20064;-52
2022/03/26 10:12:52;;;;;;;30.02;22.08;;;;;;;29.17;12.89;94746.03;5011603;28;20056;-51
2022/03/26 10:15:19;;;;;;;32.63;22.50;;;;;;;30.52;12.26;94735.25;5011693;28;20064;-53
2022/03/26 10:17:46;;;;;;;30.15;21.55;;;;;;;22.97;16.97;94740.25;5009634;28;20111;-50
2022/03/26 10:20:15;;;;;;;31.40;22.70;;;;;;;24.49;16.10;94738.19;5011718;28;20094;-54
2022/03/26 10:22:48;;;;;;;34.53;22.47;;;;;;;26.14;14.20;94733.31;5011006;28;20046;-52
2022/03/26 10:25:21;;;;;;;31.23;21.73;;;;;;;26.99;13.89;94731.09;5011601;28;20053;-51
2022/03/26 10:27:55;;;;;;;38.38;25.02;;;;;;;28.24;13.63;94736.59;5011140;28;20122;-52
2022/03/26 10:33:24;;;;;;;33.22;23.30;;;;;;;31.81;10.86;94730.25;5030431;28;20338;-52
2022/03/26 10:36:00;;;;;;;27.83;20.80;;;;;;;25.17;14.21;94733.50;5030565;28;20080;-52
2022/03/26 10:38:41;;;;;;;29.88;21.23;;;;;;;26.79;13.81;94749.66;5031221;28;20410;-51
2022/03/26 10:41:09;;;;;;;28.23;20.73;;;;;;;23.93;15.17;94752.09;5010524;28;20611;-54
2022/03/26 10:43:39;;;;;;;30.52;20.77;;;;;;;26.39;14.01;94740.16;5010839;28;20054;-52
2022/03/26 10:46:06;;;;;;;31.20;20.65;;;;;;;25.05;14.58;94729.81;5011176;28;20042;-51
2022/03/26 10:48:35;;;;;;;31.50;21.30;;;;;;;24.04;15.83;94759.91;5010840;28;20128;-53
2022/03/26 10:51:10;;;;;;;29.70;20.67;;;;;;;23.68;15.56;94730.19;5011127;28;20034;-52
2022/03/26 10:53:40;;;;;;;29.30;20.48;;;;;;;23.43;16.91;94734.31;5010493;28;20050;-53
2022/03/26 10:56:08;;;;;;;30.25;21.45;;;;;;;22.63;16.58;94740.28;5011008;28;20049;-55
2022/03/26 10:58:36;;;;;;;30.40;19.50;;;;;;;24.59;15.64;94727.66;5010643;28;20046;-51
2022/03/26 11:01:03;;;;;;;38.33;21.30;;;;;;;23.17;16.04;94737.63;5012676;28;20041;-54
2022/03/26 11:03:31;;;;;;;30.77;20.10;;;;;;;25.70;14.47;94742.84;5010830;28;20042;-55
2022/03/26 11:05:58;;;;;;;30.20;20.95;;;;;;;19.84;18.67;94741.91;5009926;28;20834;-55
2022/03/26 11:08:34;;;;;;;30.80;21.45;;;;;;;21.55;17.93;94724.97;5026840;28;20402;-52
2022/03/26 11:11:07;;;;;;;30.15;20.98;;;;;;;21.49;17.87;94736.00;5029719;28;20890;-52
2022/03/26 11:13:44;;;;;;;28.10;19.60;;;;;;;24.25;15.54;94740.38;5030318;28;20053;-54
2022/03/26 11:16:21;;;;;;;31.48;20.85;;;;;;;20.63;18.25;94742.41;5030245;28;20718;-54
2022/03/26 11:19:16;;;;;;;30.17;19.67;;;;;;;25.81;15.12;94728.13;5029788;28;20046;-52
2022/03/26 11:22:16;;;;;;;28.40;19.65;;;;;;;26.78;14.53;94719.94;5030048;28;20084;-52
2022/03/26 11:25:01;;;;;;;30.00;19.85;;;;;;;25.46;14.45;94710.13;5029891;28;20053;-52
2022/03/26 11:27:36;;;;;;;27.10;19.07;;;;;;;26.08;14.52;94715.63;5030330;28;20045;-52